sensor_id;sensor_type;location;lat;lon;timestamp;pressure;altitude;pressure_sealevel;temperature;humidity
42003;BME280;27693;50.506;30.832;2024-01-10T00:01:02;100693.07;;;-5.75;100.00
42003;BME280;27693;50.506;30.832;2024-01-10T00:02:05;100712.10;;;-5.63;100.00
42003;BME280;27693;50.506;30.832;2024-01-10T00:03:08;100695.78;;;-5.71;100.00
42003;BME280;27693;50.506;30.832;2024-01-10T00:04:10;100671.06;;;-5.77;100.00
42003;BME280;27693;50.506;30.832;2024-01-10T00:05:13;100655.35;;;-5.66;100.00
42003;BME280;27693;50.506;30.832;2024-01-10T00:06:18;100670.86;;;-5.58;100.00
42003;BME280;27693;50.506;30.832;2024-01-10T00:07:21;100712.01;;;-5.66;100.00
42003;BME280;27693;50.506;30.832;2024-01-10T00:08:24;100669.72;;;-5.67;100.00
42003;BME280;27693;50.506;30.832;2024-01-10T00:09:26;100681.67;;;-5.63;100.00
42003;BME280;27693;50.506;30.832;2024-01-10T00:10:29;100672.08;;;-5.71;100.00
42003;BME280;27693;50.506;30.832;2024-01-10T00:11:32;100668.53;;;-5.77;100.00
42003;BME280;27693;50.506;30.832;2024-01-10T00:12:36;100684.83;;;-5.70;100.00
42003;BME280;27693;50.506;30.832;2024-01-10T00:13:39;100674.40;;;-5.78;100.00
42003;BME280;27693;50.506;30.832;2024-01-10T00:14:41;100675.20;;;-5.79;100.00
42003;BME280;27693;50.506;30.832;2024-01-10T00:15:44;100673.47;;;-5.80;100.00
42003;BME280;27693;50.506;30.832;2024-01-10T00:16:47;100654.41;;;-5.70;100.00
42003;BME280;27693;50.506;30.832;2024-01-10T00:17:50;100656.95;;;-5.70;100.00
42003;BME280;27693;50.506;30.832;2024-01-10T00:18:52;100645.17;;;-5.68;100.00
42003;BME280;27693;50.506;30.832;2024-01-10T00:19:55;100671.23;;;-5.72;100.00
42003;BME280;27693;50.506;30.832;2024-01-10T00:20:57;100655.00;;;-5.77;100.00
42003;BME280;27693;50.506;30.832;2024-01-10T00:22:00;100652.47;;;-5.77;100.00
42003;BME280;27693;50.506;30.832;2024-01-10T00:23:02;100644.27;;;-5.70;100.00
42003;BME280;27693;50.506;30.832;2024-01-10T00:24:05;100671.23;;;-5.72;100.00
42003;BME280;27693;50.506;30.832;2024-01-10T00:25:08;100628.14;;;-5.72;100.00
42003;BME280;27693;50.506;30.832;2024-01-10T00:26:11;100644.95;;;-5.74;100.00
42003;BME280;27693;50.506;30.832;2024-01-10T00:27:13;100633.67;;;-5.82;100.00
42003;BME280;27693;50.506;30.832;2024-01-10T00:28:15;100640.05;;;-5.69;100.00
42003;BME280;27693;50.506;30.832;2024-01-10T00:29:23;100642.84;;;-5.62;100.00
42003;BME280;27693;50.506;30.832;2024-01-10T00:30:26;100648.30;;;-5.75;100.00
42003;BME280;27693;50.506;30.832;2024-01-10T00:31:28;100642.55;;;-5.71;100.00
42003;BME280;27693;50.506;30.832;2024-01-10T00:32:31;100652.09;;;-5.64;100.00
42003;BME280;27693;50.506;30.832;2024-01-10T00:33:33;100652.09;;;-5.64;100.00
42003;BME280;27693;50.506;30.832;2024-01-10T00:34:36;100655.00;;;-5.77;100.00
42003;BME280;27693;50.506;30.832;2024-01-10T00:35:38;100662.91;;;-5.68;100.00
42003;BME280;27693;50.506;30.832;2024-01-10T00:36:41;100658.05;;;-5.62;100.00
42003;BME280;27693;50.506;30.832;2024-01-10T00:37:43;100676.39;;;-5.69;100.00
42003;BME280;27693;50.506;30.832;2024-01-10T00:38:45;100661.30;;;-5.66;100.00
42003;BME280;27693;50.506;30.832;2024-01-10T00:39:48;100659.48;;;-5.70;100.00
42003;BME280;27693;50.506;30.832;2024-01-10T00:40:50;100656.83;;;-5.73;100.00
42003;BME280;27693;50.506;30.832;2024-01-10T00:41:52;100663.50;;;-5.75;100.00
42003;BME280;27693;50.506;30.832;2024-01-10T00:42:55;100661.19;;;-5.69;100.00
42003;BME280;27693;50.506;30.832;2024-01-10T00:43:58;100647.83;;;-5.65;100.00
42003;BME280;27693;50.506;30.832;2024-01-10T00:45:00;100653.44;;;-5.49;100.00
42003;BME280;27693;50.506;30.832;2024-01-10T00:46:03;100652.98;;;-5.62;100.00
42003;BME280;27693;50.506;30.832;2024-01-10T00:47:05;100660.00;;;-5.54;100.00
42003;BME280;27693;50.506;30.832;2024-01-10T00:48:08;100661.64;;;-5.56;100.00
42003;BME280;27693;50.506;30.832;2024-01-10T00:49:10;100664.09;;;-5.58;100.00
42003;BME280;27693;50.506;30.832;2024-01-10T00:50:13;100652.13;;;-5.62;100.00
42003;BME280;27693;50.506;30.832;2024-01-10T00:51:15;100652.13;;;-5.62;100.00
42003;BME280;27693;50.506;30.832;2024-01-10T00:52:17;100649.77;;;-5.57;100.00
42003;BME280;27693;50.506;30.832;2024-01-10T00:53:19;100636.53;;;-5.49;100.00
42003;BME280;27693;50.506;30.832;2024-01-10T00:54:22;100655.25;;;-5.45;100.00
42003;BME280;27693;50.506;30.832;2024-01-10T00:55:27;100676.18;;;-5.51;100.00
42003;BME280;27693;50.506;30.832;2024-01-10T00:56:29;100664.55;;;-5.70;100.00
42003;BME280;27693;50.506;30.832;2024-01-10T00:57:32;100646.30;;;-5.59;100.00
42003;BME280;27693;50.506;30.832;2024-01-10T00:58:35;100650.95;;;-5.72;100.00
42003;BME280;27693;50.506;30.832;2024-01-10T00:59:38;100635.83;;;-5.69;100.00
42003;BME280;27693;50.506;30.832;2024-01-10T01:00:41;100636.04;;;-5.63;100.00
42003;BME280;27693;50.506;30.832;2024-01-10T01:01:43;100624.70;;;-5.48;100.00
42003;BME280;27693;50.506;30.832;2024-01-10T01:02:46;100635.81;;;-5.45;100.00
42003;BME280;27693;50.506;30.832;2024-01-10T01:03:48;100621.71;;;-5.62;100.00
42003;BME280;27693;50.506;30.832;2024-01-10T01:04:50;100637.69;;;-5.65;100.00
42003;BME280;27693;50.506;30.832;2024-01-10T01:05:53;100633.37;;;-5.67;100.00
42003;BME280;27693;50.506;30.832;2024-01-10T01:06:56;100632.23;;;-5.75;100.00
42003;BME280;27693;50.506;30.832;2024-01-10T01:07:58;100622.27;;;-5.71;100.00
42003;BME280;27693;50.506;30.832;2024-01-10T01:09:01;100609.42;;;-5.75;100.00
42003;BME280;27693;50.506;30.832;2024-01-10T01:10:05;100604.65;;;-5.66;100.00
42003;BME280;27693;50.506;30.832;2024-01-10T01:11:07;100593.78;;;-5.64;100.00
42003;BME280;27693;50.506;30.832;2024-01-10T01:12:10;100605.53;;;-5.66;100.00
42003;BME280;27693;50.506;30.832;2024-01-10T01:13:12;100594.88;;;-5.55;100.00
42003;BME280;27693;50.506;30.832;2024-01-10T01:14:15;100592.94;;;-5.63;100.00
42003;BME280;27693;50.506;30.832;2024-01-10T01:15:17;100616.44;;;-5.68;100.00
42003;BME280;27693;50.506;30.832;2024-01-10T01:16:20;100610.69;;;-5.63;100.00
42003;BME280;27693;50.506;30.832;2024-01-10T01:17:22;100618.84;;;-5.71;100.00
42003;BME280;27693;50.506;30.832;2024-01-10T01:18:25;100598.73;;;-5.67;100.00
42003;BME280;27693;50.506;30.832;2024-01-10T01:19:28;100626.87;;;-5.59;100.00
42003;BME280;27693;50.506;30.832;2024-01-10T01:20:30;100626.87;;;-5.59;100.00
42003;BME280;27693;50.506;30.832;2024-01-10T01:21:33;100601.86;;;-5.74;100.00
42003;BME280;27693;50.506;30.832;2024-01-10T01:22:35;100600.05;;;-5.78;100.00
42003;BME280;27693;50.506;30.832;2024-01-10T01:23:37;100603.22;;;-5.84;100.00
42003;BME280;27693;50.506;30.832;2024-01-10T01:24:42;100605.63;;;-5.87;100.00
42003;BME280;27693;50.506;30.832;2024-01-10T01:25:44;100616.02;;;-5.81;100.00
42003;BME280;27693;50.506;30.832;2024-01-10T01:26:47;100596.46;;;-5.83;100.00
42003;BME280;27693;50.506;30.832;2024-01-10T01:27:49;100587.53;;;-5.73;100.00
42003;BME280;27693;50.506;30.832;2024-01-10T01:28:51;100596.37;;;-5.86;100.00
42003;BME280;27693;50.506;30.832;2024-01-10T01:29:54;100609.84;;;-5.87;100.00
42003;BME280;27693;50.506;30.832;2024-01-10T01:30:57;100583.37;;;-5.96;100.00
42003;BME280;27693;50.506;30.832;2024-01-10T01:32:00;100587.84;;;-5.88;100.00
42003;BME280;27693;50.506;30.832;2024-01-10T01:33:02;100589.58;;;-5.87;100.00
42003;BME280;27693;50.506;30.832;2024-01-10T01:34:07;100566.89;;;-5.84;100.00
42003;BME280;27693;50.506;30.832;2024-01-10T01:35:10;100584.08;;;-5.75;100.00
42003;BME280;27693;50.506;30.832;2024-01-10T01:36:14;100576.81;;;-5.90;100.00
42003;BME280;27693;50.506;30.832;2024-01-10T01:37:16;100590.03;;;-5.99;100.00
42003;BME280;27693;50.506;30.832;2024-01-10T01:38:18;100574.03;;;-5.97;100.00
42003;BME280;27693;50.506;30.832;2024-01-10T01:39:21;100586.23;;;-5.86;100.00
42003;BME280;27693;50.506;30.832;2024-01-10T01:40:26;100573.56;;;-5.86;100.00
42003;BME280;27693;50.506;30.832;2024-01-10T01:41:29;100573.98;;;-5.74;100.00
42003;BME280;27693;50.506;30.832;2024-01-10T01:42:32;100582.98;;;-5.82;100.00
42003;BME280;27693;50.506;30.832;2024-01-10T01:43:35;100590.34;;;-5.90;100.00
42003;BME280;27693;50.506;30.832;2024-01-10T01:44:38;100573.98;;;-6.00;100.00
42003;BME280;27693;50.506;30.832;2024-01-10T01:45:40;100571.41;;;-6.01;100.00
42003;BME280;27693;50.506;30.832;2024-01-10T01:46:44;100649.19;;;-5.99;100.00
42003;BME280;27693;50.506;30.832;2024-01-10T01:47:49;100572.89;;;-6.06;100.00
42003;BME280;27693;50.506;30.832;2024-01-10T01:48:52;100591.50;;;-6.06;100.00
42003;BME280;27693;50.506;30.832;2024-01-10T01:49:56;100615.91;;;-6.08;100.00
42003;BME280;27693;50.506;30.832;2024-01-10T01:51:07;100565.50;;;-6.00;100.00
42003;BME280;27693;50.506;30.832;2024-01-10T01:52:07;100543.62;;;-5.97;100.00
42003;BME280;27693;50.506;30.832;2024-01-10T01:53:10;100539.48;;;-5.95;100.00
42003;BME280;27693;50.506;30.832;2024-01-10T01:54:12;100533.44;;;-6.00;100.00
42003;BME280;27693;50.506;30.832;2024-01-10T01:55:16;100542.98;;;-5.91;100.00
42003;BME280;27693;50.506;30.832;2024-01-10T01:56:19;100572.55;;;-5.91;100.00
42003;BME280;27693;50.506;30.832;2024-01-10T01:57:22;100561.31;;;-6.00;100.00
42003;BME280;27693;50.506;30.832;2024-01-10T01:58:25;100548.14;;;-6.14;100.00
42003;BME280;27693;50.506;30.832;2024-01-10T01:59:27;100526.44;;;-6.07;100.00
42003;BME280;27693;50.506;30.832;2024-01-10T02:00:30;100550.16;;;-6.05;100.00
42003;BME280;27693;50.506;30.832;2024-01-10T02:01:33;100540.88;;;-6.04;100.00
42003;BME280;27693;50.506;30.832;2024-01-10T02:02:36;100565.23;;;-6.08;100.00
42003;BME280;27693;50.506;30.832;2024-01-10T02:03:40;100531.50;;;-6.07;100.00
42003;BME280;27693;50.506;30.832;2024-01-10T02:04:43;100538.80;;;-5.90;100.00
42003;BME280;27693;50.506;30.832;2024-01-10T02:05:47;100530.28;;;-5.92;100.00
42003;BME280;27693;50.506;30.832;2024-01-10T02:06:51;100533.61;;;-5.94;100.00
42003;BME280;27693;50.506;30.832;2024-01-10T02:07:53;100541.42;;;-5.87;100.00
42003;BME280;27693;50.506;30.832;2024-01-10T02:08:57;100521.66;;;-5.98;100.00
42003;BME280;27693;50.506;30.832;2024-01-10T02:10:00;100521.66;;;-5.98;100.00
42003;BME280;27693;50.506;30.832;2024-01-10T02:11:03;100534.29;;;-5.99;100.00
42003;BME280;27693;50.506;30.832;2024-01-10T02:12:07;100507.98;;;-6.03;100.00
42003;BME280;27693;50.506;30.832;2024-01-10T02:13:09;100510.63;;;-6.00;100.00
42003;BME280;27693;50.506;30.832;2024-01-10T02:14:13;100524.24;;;-5.96;100.00
42003;BME280;27693;50.506;30.832;2024-01-10T02:15:15;100529.27;;;-5.98;100.00
42003;BME280;27693;50.506;30.832;2024-01-10T02:16:19;100517.27;;;-6.03;100.00
42003;BME280;27693;50.506;30.832;2024-01-10T02:17:21;100500.45;;;-6.01;100.00
42003;BME280;27693;50.506;30.832;2024-01-10T02:18:23;100503.09;;;-5.97;100.00
42003;BME280;27693;50.506;30.832;2024-01-10T02:19:26;100498.18;;;-5.92;100.00
42003;BME280;27693;50.506;30.832;2024-01-10T02:20:31;100498.14;;;-5.94;100.00
42003;BME280;27693;50.506;30.832;2024-01-10T02:21:34;100502.24;;;-5.97;100.00
42003;BME280;27693;50.506;30.832;2024-01-10T02:22:36;100500.50;;;-6.00;100.00
42003;BME280;27693;50.506;30.832;2024-01-10T02:23:39;100512.54;;;-5.92;100.00
42003;BME280;27693;50.506;30.832;2024-01-10T02:24:41;100494.69;;;-5.96;100.00
42003;BME280;27693;50.506;30.832;2024-01-10T02:25:44;100500.63;;;-5.95;100.00
42003;BME280;27693;50.506;30.832;2024-01-10T02:26:50;100492.55;;;-5.83;100.00
42003;BME280;27693;50.506;30.832;2024-01-10T02:27:52;100523.69;;;-5.87;100.00
42003;BME280;27693;50.506;30.832;2024-01-10T02:28:54;100493.19;;;-5.90;100.00
42003;BME280;27693;50.506;30.832;2024-01-10T02:29:58;100493.07;;;-5.94;100.00
42003;BME280;27693;50.506;30.832;2024-01-10T02:31:02;100505.78;;;-5.92;100.00
42003;BME280;27693;50.506;30.832;2024-01-10T02:32:06;100498.86;;;-5.98;100.00
42003;BME280;27693;50.506;30.832;2024-01-10T02:33:08;100526.73;;;-5.98;100.00
42003;BME280;27693;50.506;30.832;2024-01-10T02:34:11;100475.53;;;-5.87;100.00
42003;BME280;27693;50.506;30.832;2024-01-10T02:35:14;100496.61;;;-5.88;100.00
42003;BME280;27693;50.506;30.832;2024-01-10T02:36:17;100497.49;;;-5.88;100.00
42003;BME280;27693;50.506;30.832;2024-01-10T02:37:19;100472.03;;;-5.91;100.00
42003;BME280;27693;50.506;30.832;2024-01-10T02:38:22;100483.94;;;-5.88;100.00
42003;BME280;27693;50.506;30.832;2024-01-10T02:39:26;100496.53;;;-5.91;100.00
42003;BME280;27693;50.506;30.832;2024-01-10T02:40:29;100489.97;;;-5.85;100.00
42003;BME280;27693;50.506;30.832;2024-01-10T02:41:32;100477.27;;;-5.86;100.00
42003;BME280;27693;50.506;30.832;2024-01-10T02:42:35;100472.08;;;-5.89;100.00
42003;BME280;27693;50.506;30.832;2024-01-10T02:43:38;100481.52;;;-5.85;100.00
42003;BME280;27693;50.506;30.832;2024-01-10T02:44:41;100488.32;;;-5.84;100.00
42003;BME280;27693;50.506;30.832;2024-01-10T02:45:43;100493.03;;;-5.95;100.00
42003;BME280;27693;50.506;30.832;2024-01-10T02:46:46;100483.98;;;-5.87;100.00
42003;BME280;27693;50.506;30.832;2024-01-10T02:47:49;100494.03;;;-5.90;100.00
42003;BME280;27693;50.506;30.832;2024-01-10T02:48:51;100482.21;;;-5.89;100.00
42003;BME280;27693;50.506;30.832;2024-01-10T02:49:53;100499.27;;;-5.85;100.00
42003;BME280;27693;50.506;30.832;2024-01-10T02:50:56;100482.94;;;-5.94;100.00
42003;BME280;27693;50.506;30.832;2024-01-10T02:51:58;100501.59;;;-5.91;100.00
42003;BME280;27693;50.506;30.832;2024-01-10T02:53:01;100476.54;;;-5.82;100.00
42003;BME280;27693;50.506;30.832;2024-01-10T02:54:03;100495.92;;;-5.84;100.00
42003;BME280;27693;50.506;30.832;2024-01-10T02:55:06;100495.05;;;-5.85;100.00
42003;BME280;27693;50.506;30.832;2024-01-10T02:56:09;100491.74;;;-5.82;100.00
42003;BME280;27693;50.506;30.832;2024-01-10T02:57:13;100473.39;;;-5.75;100.00
42003;BME280;27693;50.506;30.832;2024-01-10T02:58:15;100489.56;;;-5.71;100.00
42003;BME280;27693;50.506;30.832;2024-01-10T02:59:17;100468.52;;;-5.69;100.00
42003;BME280;27693;50.506;30.832;2024-01-10T03:00:20;100495.40;;;-5.74;100.00
42003;BME280;27693;50.506;30.832;2024-01-10T03:01:22;100481.96;;;-5.71;100.00
42003;BME280;27693;50.506;30.832;2024-01-10T03:02:25;100489.48;;;-5.74;100.00
42003;BME280;27693;50.506;30.832;2024-01-10T03:03:28;100494.44;;;-5.78;100.00
42003;BME280;27693;50.506;30.832;2024-01-10T03:04:31;100508.11;;;-5.72;100.00
42003;BME280;27693;50.506;30.832;2024-01-10T03:05:34;100550.20;;;-5.78;100.00
42003;BME280;27693;50.506;30.832;2024-01-10T03:06:37;100505.22;;;-5.83;100.00
42003;BME280;27693;50.506;30.832;2024-01-10T03:07:40;100505.91;;;-5.89;100.00
42003;BME280;27693;50.506;30.832;2024-01-10T03:08:42;100508.39;;;-5.90;100.00
42003;BME280;27693;50.506;30.832;2024-01-10T03:09:44;100505.98;;;-5.86;100.00
42003;BME280;27693;50.506;30.832;2024-01-10T03:10:47;100521.11;;;-5.89;100.00
42003;BME280;27693;50.506;30.832;2024-01-10T03:11:49;100479.80;;;-5.86;100.00
42003;BME280;27693;50.506;30.832;2024-01-10T03:12:51;100485.67;;;-5.87;100.00
42003;BME280;27693;50.506;30.832;2024-01-10T03:14:07;100510.20;;;-5.86;100.00
42003;BME280;27693;50.506;30.832;2024-01-10T03:15:06;100493.59;;;-5.78;100.00
42003;BME280;27693;50.506;30.832;2024-01-10T03:16:09;100513.75;;;-5.81;100.00
42003;BME280;27693;50.506;30.832;2024-01-10T03:17:15;100484.22;;;-5.81;100.00
42003;BME280;27693;50.506;30.832;2024-01-10T03:18:17;100485.38;;;-5.71;100.00
42003;BME280;27693;50.506;30.832;2024-01-10T03:19:20;100539.21;;;-5.78;100.00
42003;BME280;27693;50.506;30.832;2024-01-10T03:20:25;100472.39;;;-5.80;100.00
42003;BME280;27693;50.506;30.832;2024-01-10T03:21:28;100483.65;;;-5.72;100.00
42003;BME280;27693;50.506;30.832;2024-01-10T03:22:31;100493.39;;;-5.84;100.00
42003;BME280;27693;50.506;30.832;2024-01-10T03:23:34;100488.92;;;-5.91;100.00
42003;BME280;27693;50.506;30.832;2024-01-10T03:24:36;100487.44;;;-5.85;100.00
42003;BME280;27693;50.506;30.832;2024-01-10T03:25:39;100495.77;;;-5.89;100.00
42003;BME280;27693;50.506;30.832;2024-01-10T03:26:43;100495.77;;;-5.89;100.00
42003;BME280;27693;50.506;30.832;2024-01-10T03:27:45;100483.34;;;-5.81;100.00
42003;BME280;27693;50.506;30.832;2024-01-10T03:28:48;100478.66;;;-5.69;100.00
42003;BME280;27693;50.506;30.832;2024-01-10T03:29:51;100517.61;;;-5.67;100.00
42003;BME280;27693;50.506;30.832;2024-01-10T03:30:53;100497.13;;;-5.73;100.00
42003;BME280;27693;50.506;30.832;2024-01-10T03:31:56;100486.03;;;-5.77;100.00
42003;BME280;27693;50.506;30.832;2024-01-10T03:32:58;100496.93;;;-5.79;100.00
42003;BME280;27693;50.506;30.832;2024-01-10T03:34:00;100496.73;;;-5.85;100.00
42003;BME280;27693;50.506;30.832;2024-01-10T03:35:02;100493.27;;;-5.87;100.00
42003;BME280;27693;50.506;30.832;2024-01-10T03:36:08;100496.73;;;-5.85;100.00
42003;BME280;27693;50.506;30.832;2024-01-10T03:37:12;100516.45;;;-5.77;100.00
42003;BME280;27693;50.506;30.832;2024-01-10T03:38:15;100484.22;;;-5.81;100.00
42003;BME280;27693;50.506;30.832;2024-01-10T03:39:19;100483.45;;;-5.78;100.00
42003;BME280;27693;50.506;30.832;2024-01-10T03:40:23;100485.18;;;-5.77;100.00
42003;BME280;27693;50.506;30.832;2024-01-10T03:41:26;100488.52;;;-5.78;100.00
42003;BME280;27693;50.506;30.832;2024-01-10T03:42:28;100487.55;;;-5.82;100.00
42003;BME280;27693;50.506;30.832;2024-01-10T03:43:30;100484.06;;;-5.85;100.00
42003;BME280;27693;50.506;30.832;2024-01-10T03:44:32;100500.27;;;-5.80;100.00
42003;BME280;27693;50.506;30.832;2024-01-10T03:45:35;100500.23;;;-5.82;100.00
42003;BME280;27693;50.506;30.832;2024-01-10T03:46:37;100474.92;;;-5.80;100.00
42003;BME280;27693;50.506;30.832;2024-01-10T03:47:40;100478.47;;;-5.75;100.00
42003;BME280;27693;50.506;30.832;2024-01-10T03:48:43;100480.39;;;-5.68;100.00
42003;BME280;27693;50.506;30.832;2024-01-10T03:49:54;100493.98;;;-5.66;100.00
42003;BME280;27693;50.506;30.832;2024-01-10T03:50:58;100486.88;;;-5.76;100.00
42003;BME280;27693;50.506;30.832;2024-01-10T03:52:01;100485.98;;;-5.78;100.00
42003;BME280;27693;50.506;30.832;2024-01-10T03:53:03;100478.47;;;-5.75;100.00
42003;BME280;27693;50.506;30.832;2024-01-10T03:54:06;100475.43;;;-5.65;100.00
42003;BME280;27693;50.506;30.832;2024-01-10T03:55:09;100470.36;;;-5.65;100.00
42003;BME280;27693;50.506;30.832;2024-01-10T03:56:12;100473.89;;;-5.59;100.00
42003;BME280;27693;50.506;30.832;2024-01-10T03:57:15;100483.84;;;-5.66;100.00
42003;BME280;27693;50.506;30.832;2024-01-10T03:58:17;100505.73;;;-5.68;100.00
42003;BME280;27693;50.506;30.832;2024-01-10T03:59:19;100481.92;;;-5.73;100.00
42003;BME280;27693;50.506;30.832;2024-01-10T04:00:22;100468.63;;;-5.66;100.00
42003;BME280;27693;50.506;30.832;2024-01-10T04:01:24;100464.56;;;-5.61;100.00
42003;BME280;27693;50.506;30.832;2024-01-10T04:02:27;100470.36;;;-5.65;100.00
42003;BME280;27693;50.506;30.832;2024-01-10T04:03:30;100463.09;;;-5.54;100.00
42003;BME280;27693;50.506;30.832;2024-01-10T04:04:32;100471.85;;;-5.44;100.00
42003;BME280;27693;50.506;30.832;2024-01-10T04:05:34;100475.92;;;-5.49;100.00
42003;BME280;27693;50.506;30.832;2024-01-10T04:06:37;100490.84;;;-5.58;100.00
42003;BME280;27693;50.506;30.832;2024-01-10T04:07:40;100477.20;;;-5.62;100.00
42003;BME280;27693;50.506;30.832;2024-01-10T04:08:46;100480.50;;;-5.65;100.00
42003;BME280;27693;50.506;30.832;2024-01-10T04:09:48;100453.73;;;-5.56;100.00
42003;BME280;27693;50.506;30.832;2024-01-10T04:10:51;100459.83;;;-5.50;100.00
42003;BME280;27693;50.506;30.832;2024-01-10T04:11:53;100468.20;;;-5.52;100.00
42003;BME280;27693;50.506;30.832;2024-01-10T04:12:56;100467.21;;;-5.57;100.00
42003;BME280;27693;50.506;30.832;2024-01-10T04:13:58;100464.48;;;-5.64;100.00
42003;BME280;27693;50.506;30.832;2024-01-10T04:15:00;100448.55;;;-5.59;100.00
42003;BME280;27693;50.506;30.832;2024-01-10T04:16:04;100467.02;;;-5.64;100.00
42003;BME280;27693;50.506;30.832;2024-01-10T04:17:07;100453.42;;;-5.66;100.00
42003;BME280;27693;50.506;30.832;2024-01-10T04:18:11;100455.42;;;-5.55;100.00
42003;BME280;27693;50.506;30.832;2024-01-10T04:19:15;100450.61;;;-5.48;100.00
42003;BME280;27693;50.506;30.832;2024-01-10T04:20:19;100454.10;;;-5.44;100.00
42003;BME280;27693;50.506;30.832;2024-01-10T04:21:21;100456.48;;;-5.49;100.00
42003;BME280;27693;50.506;30.832;2024-01-10T04:22:24;100455.64;;;-5.49;100.00
42003;BME280;27693;50.506;30.832;2024-01-10T04:23:27;100453.73;;;-5.56;100.00
42003;BME280;27693;50.506;30.832;2024-01-10T04:24:29;100458.49;;;-5.66;100.00
42003;BME280;27693;50.506;30.832;2024-01-10T04:25:34;100451.89;;;-5.61;100.00
42003;BME280;27693;50.506;30.832;2024-01-10T04:26:36;100453.61;;;-5.59;100.00
42003;BME280;27693;50.506;30.832;2024-01-10T04:27:40;100447.96;;;-5.51;100.00
42003;BME280;27693;50.506;30.832;2024-01-10T04:28:43;100449.73;;;-5.48;100.00
42003;BME280;27693;50.506;30.832;2024-01-10T04:29:46;100459.17;;;-5.44;100.00
42003;BME280;27693;50.506;30.832;2024-01-10T04:30:50;100456.67;;;-5.42;100.00
42003;BME280;27693;50.506;30.832;2024-01-10T04:31:53;100450.06;;;-5.37;100.00
42003;BME280;27693;50.506;30.832;2024-01-10T04:32:55;100459.36;;;-5.38;100.00
42003;BME280;27693;50.506;30.832;2024-01-10T04:33:57;100464.24;;;-5.44;100.00
42003;BME280;27693;50.506;30.832;2024-01-10T04:35:01;100452.56;;;-5.39;100.00
42003;BME280;27693;50.506;30.832;2024-01-10T04:36:03;100461.70;;;-5.44;100.00
42003;BME280;27693;50.506;30.832;2024-01-10T04:37:06;100446.49;;;-5.44;100.00
42003;BME280;27693;50.506;30.832;2024-01-10T04:38:09;100468.40;;;-5.46;100.00
42003;BME280;27693;50.506;30.832;2024-01-10T04:39:12;100453.18;;;-5.46;100.00
42003;BME280;27693;50.506;30.832;2024-01-10T04:40:21;100478.55;;;-5.46;100.00
42003;BME280;27693;50.506;30.832;2024-01-10T04:41:25;100459.49;;;-5.61;100.00
42003;BME280;27693;50.506;30.832;2024-01-10T04:42:27;100459.49;;;-5.61;100.00
42003;BME280;27693;50.506;30.832;2024-01-10T04:43:29;100476.77;;;-5.49;100.00
42003;BME280;27693;50.506;30.832;2024-01-10T04:44:32;100485.95;;;-5.52;100.00
42003;BME280;27693;50.506;30.832;2024-01-10T04:45:34;100482.42;;;-5.57;100.00
42003;BME280;27693;50.506;30.832;2024-01-10T04:46:37;100483.92;;;-5.63;100.00
42003;BME280;27693;50.506;30.832;2024-01-10T04:47:39;100492.98;;;-5.71;100.00
42003;BME280;27693;50.506;30.832;2024-01-10T04:48:42;100489.72;;;-5.67;100.00
42003;BME280;27693;50.506;30.832;2024-01-10T04:49:45;100495.71;;;-5.65;100.00
42003;BME280;27693;50.506;30.832;2024-01-10T04:50:48;100484.23;;;-5.53;100.00
42003;BME280;27693;50.506;30.832;2024-01-10T04:51:50;100499.55;;;-5.50;100.00
42003;BME280;27693;50.506;30.832;2024-01-10T04:52:53;100492.14;;;-5.44;100.00
42003;BME280;27693;50.506;30.832;2024-01-10T04:53:55;100487.87;;;-5.45;100.00
42003;BME280;27693;50.506;30.832;2024-01-10T04:54:58;100488.88;;;-5.40;100.00
42003;BME280;27693;50.506;30.832;2024-01-10T04:56:01;100493.25;;;-5.36;100.00
42003;BME280;27693;50.506;30.832;2024-01-10T04:57:04;100501.48;;;-5.43;100.00
42003;BME280;27693;50.506;30.832;2024-01-10T04:58:06;100494.09;;;-5.35;100.00
42003;BME280;27693;50.506;30.832;2024-01-10T04:59:10;100506.93;;;-5.31;100.00
42003;BME280;27693;50.506;30.832;2024-01-10T05:00:13;100496.59;;;-5.37;100.00
42003;BME280;27693;50.506;30.832;2024-01-10T05:01:16;100524.42;;;-5.38;100.00
42003;BME280;27693;50.506;30.832;2024-01-10T05:02:19;100498.67;;;-5.51;100.00
42003;BME280;27693;50.506;30.832;2024-01-10T05:03:22;100505.44;;;-5.51;100.00
42003;BME280;27693;50.506;30.832;2024-01-10T05:04:25;100509.59;;;-5.53;100.00
42003;BME280;27693;50.506;30.832;2024-01-10T05:05:27;100510.35;;;-5.56;100.00
42003;BME280;27693;50.506;30.832;2024-01-10T05:06:30;100517.23;;;-5.52;100.00
42003;BME280;27693;50.506;30.832;2024-01-10T05:07:32;100500.98;;;-5.58;100.00
42003;BME280;27693;50.506;30.832;2024-01-10T05:08:35;100516.27;;;-5.55;100.00
42003;BME280;27693;50.506;30.832;2024-01-10T05:09:38;100516.08;;;-5.62;100.00
42003;BME280;27693;50.506;30.832;2024-01-10T05:10:41;100518.11;;;-5.51;100.00
42003;BME280;27693;50.506;30.832;2024-01-10T05:11:45;100514.05;;;-5.46;100.00
42003;BME280;27693;50.506;30.832;2024-01-10T05:12:54;100506.44;;;-5.46;100.00
42003;BME280;27693;50.506;30.832;2024-01-10T05:13:56;100525.19;;;-5.41;100.00
42003;BME280;27693;50.506;30.832;2024-01-10T05:14:58;100522.61;;;-5.42;100.00
42003;BME280;27693;50.506;30.832;2024-01-10T05:16:00;100513.70;;;-5.57;100.00
42003;BME280;27693;50.506;30.832;2024-01-10T05:17:03;100504.63;;;-5.50;100.00
42003;BME280;27693;50.506;30.832;2024-01-10T05:18:06;100496.44;;;-4.85;100.00
42003;BME280;27693;50.506;30.832;2024-01-10T05:19:09;100496.44;;;-4.85;100.00
42003;BME280;27693;50.506;30.832;2024-01-10T05:20:13;100512.75;;;-5.06;100.00
42003;BME280;27693;50.506;30.832;2024-01-10T05:21:16;100504.77;;;-5.18;100.00